createdAt,value
2019-02-20T00:00:29.001Z,38.93
2019-02-20T00:02:56.748Z,45.50
2019-02-20T00:05:24.420Z,35.47
2019-02-20T00:07:52.301Z,32.20
2019-02-20T00:10:20.060Z,32.37
2019-02-20T00:12:47.838Z,34.43
2019-02-20T00:15:15.508Z,36.97
2019-02-20T00:17:43.244Z,34.83
2019-02-20T00:20:11.028Z,39.07
2019-02-20T00:22:40.458Z,34.23
2019-02-20T00:25:08.301Z,35.63
2019-02-20T00:27:36.058Z,30.03
2019-02-20T00:30:04.550Z,27.97
2019-02-20T00:32:32.405Z,27.73
2019-02-20T00:35:00.387Z,33.50
2019-02-20T00:37:28.252Z,31.77
2019-02-20T00:39:56.021Z,28.83
2019-02-20T00:42:23.791Z,34.00
2019-02-20T00:44:55.861Z,33.80
2019-02-20T00:47:41.566Z,31.77
2019-02-20T00:50:09.314Z,39.97
2019-02-20T00:52:38.608Z,34.13
2019-02-20T00:55:07.405Z,35.40
2019-02-20T00:57:35.142Z,35.37
2019-02-20T01:00:03.228Z,32.33
2019-02-20T01:02:30.993Z,37.23
2019-02-20T01:04:58.883Z,37.20
2019-02-20T01:07:26.740Z,36.40
2019-02-20T01:09:54.434Z,40.93
2019-02-20T01:12:22.152Z,41.47
2019-02-20T01:14:49.815Z,36.50
2019-02-20T01:17:17.597Z,38.43
2019-02-20T01:19:45.670Z,38.53
2019-02-20T01:22:13.540Z,38.17
2019-02-20T01:24:41.403Z,33.90
2019-02-20T01:27:09.181Z,39.87
2019-02-20T01:29:36.947Z,36.30
2019-02-20T01:32:05.519Z,41.95
2019-02-20T01:34:33.296Z,42.03
2019-02-20T01:37:01.053Z,40.03
2019-02-20T01:39:28.728Z,45.17
2019-02-20T01:41:56.584Z,43.60
2019-02-20T01:44:24.379Z,45.70
2019-02-20T01:46:52.122Z,37.67
2019-02-20T01:49:19.894Z,44.77
2019-02-20T01:51:47.649Z,36.53
2019-02-20T01:54:15.624Z,40.87
2019-02-20T01:56:43.497Z,37.77
2019-02-20T01:59:11.358Z,40.07
2019-02-20T02:01:39.003Z,40.53
2019-02-20T02:04:07.205Z,39.23
2019-02-20T02:06:34.964Z,33.07
2019-02-20T02:09:02.834Z,35.33
2019-02-20T02:11:30.717Z,42.40
2019-02-20T02:13:58.471Z,36.17
2019-02-20T02:16:26.243Z,41.53
2019-02-20T02:18:54.007Z,37.50
2019-02-20T02:21:21.870Z,36.83
2019-02-20T02:23:49.624Z,37.60
2019-02-20T02:26:17.497Z,34.57
2019-02-20T02:28:45.379Z,40.23
2019-02-20T02:31:13.142Z,36.27
2019-02-20T02:33:40.886Z,39.70
2019-02-20T02:36:08.667Z,39.57
2019-02-20T02:38:36.454Z,39.23
2019-02-20T02:41:04.346Z,37.83
2019-02-20T02:43:32.274Z,35.77
2019-02-20T02:45:59.921Z,33.50
2019-02-20T02:48:27.564Z,35.17
2019-02-20T02:50:55.366Z,33.93
2019-02-20T02:53:30.376Z,35.67
2019-02-20T02:55:52.532Z,36.33
2019-02-20T02:58:20.401Z,39.10
2019-02-20T03:00:48.271Z,36.50
2019-02-20T03:03:16.028Z,37.03
2019-02-20T03:05:43.797Z,34.23
2019-02-20T03:08:11.671Z,33.20
2019-02-20T03:10:39.448Z,32.77
2019-02-20T03:13:07.410Z,37.57
2019-02-20T03:15:35.280Z,35.90
2019-02-20T03:18:03.033Z,37.70
2019-02-20T03:20:30.800Z,35.53
2019-02-20T03:22:58.455Z,35.93
2019-02-20T03:25:26.220Z,39.30
2019-02-20T03:27:53.931Z,36.50
2019-02-20T03:30:21.773Z,37.20
2019-02-20T03:32:49.533Z,35.20
2019-02-20T03:35:17.305Z,37.53
2019-02-20T03:37:45.156Z,33.70
2019-02-20T03:40:13.041Z,33.30
2019-02-20T03:42:41.131Z,33.87
2019-02-20T03:45:08.885Z,37.77
2019-02-20T03:47:36.646Z,35.50
2019-02-20T03:50:06.151Z,35.75
2019-02-20T03:52:33.807Z,31.90
2019-02-20T03:55:01.581Z,32.53
2019-02-20T03:57:29.547Z,32.93
2019-02-20T03:59:57.620Z,33.93
2019-02-20T04:02:27.596Z,35.60
2019-02-20T04:04:55.507Z,35.90
2019-02-20T04:07:23.259Z,32.00
2019-02-20T04:09:51.038Z,32.80
2019-02-20T04:12:18.805Z,30.07
2019-02-20T04:14:46.673Z,28.93
2019-02-20T04:17:14.439Z,32.90
2019-02-20T04:19:42.314Z,31.40
2019-02-20T04:22:09.980Z,31.80
2019-02-20T04:24:37.842Z,33.63
2019-02-20T04:27:05.592Z,31.60
2019-02-20T04:29:33.482Z,32.77
2019-02-20T04:32:01.344Z,29.90
2019-02-20T04:34:29.108Z,32.10
2019-02-20T04:36:56.878Z,31.57
2019-02-20T04:39:24.640Z,32.83
2019-02-20T04:41:52.400Z,32.40
2019-02-20T04:44:20.155Z,35.17
2019-02-20T04:46:47.935Z,30.60
2019-02-20T04:49:15.703Z,33.40
2019-02-20T04:51:43.305Z,28.87
2019-02-20T04:54:13.743Z,30.73
2019-02-20T04:56:40.420Z,27.60
2019-02-20T04:59:08.092Z,29.20
2019-02-20T05:01:35.972Z,32.93
2019-02-20T05:04:03.733Z,35.20
2019-02-20T05:06:31.602Z,30.10
2019-02-20T05:08:59.488Z,36.00
2019-02-20T05:11:27.343Z,29.90
2019-02-20T05:13:54.994Z,32.43
2019-02-20T05:16:22.683Z,29.87
2019-02-20T05:18:50.548Z,30.37
2019-02-20T05:21:18.302Z,28.23
2019-02-20T05:23:46.078Z,28.50
2019-02-20T05:26:13.831Z,28.00
2019-02-20T05:28:41.597Z,31.97
2019-02-20T05:31:09.347Z,28.93
2019-02-20T05:33:37.062Z,30.50
2019-02-20T05:36:05.414Z,25.57
2019-02-20T05:38:33.279Z,24.70
2019-02-20T05:41:01.144Z,25.23
2019-02-20T05:43:28.900Z,25.80
2019-02-20T05:45:56.545Z,26.73
2019-02-20T05:48:24.427Z,24.77
2019-02-20T05:50:52.313Z,26.10
2019-02-20T05:53:20.186Z,27.97
2019-02-20T05:55:48.052Z,25.60
2019-02-20T05:58:15.915Z,26.23
2019-02-20T06:00:43.787Z,27.73
2019-02-20T06:03:11.547Z,25.03
2019-02-20T06:05:39.328Z,24.13
2019-02-20T06:08:07.182Z,24.23
2019-02-20T06:10:35.059Z,27.80
2019-02-20T06:13:02.924Z,28.33
2019-02-20T06:15:30.672Z,26.03
2019-02-20T06:17:58.450Z,25.90
2019-02-20T06:20:26.230Z,24.93
2019-02-20T06:22:54.092Z,24.80
2019-02-20T06:25:21.758Z,27.70
2019-02-20T06:27:49.430Z,22.17
2019-02-20T06:30:17.388Z,27.30
2019-02-20T06:32:45.023Z,29.37
2019-02-20T06:35:12.697Z,27.23
2019-02-20T06:37:40.583Z,28.60
2019-02-20T06:40:09.166Z,23.37
2019-02-20T06:42:36.947Z,29.00
2019-02-20T06:45:05.827Z,22.97
2019-02-20T06:47:33.498Z,25.90
2019-02-20T06:50:01.778Z,21.90
2019-02-20T06:52:29.563Z,23.87
2019-02-20T06:54:57.279Z,23.93
2019-02-20T06:57:24.956Z,20.27
2019-02-20T06:59:52.725Z,21.63
2019-02-20T07:02:20.475Z,23.80
2019-02-20T07:05:06.284Z,29.07
2019-02-20T07:07:35.480Z,26.83
2019-02-20T07:10:16.753Z,26.20
2019-02-20T07:12:48.633Z,23.60
2019-02-20T07:15:18.032Z,23.67
2019-02-20T07:17:50.206Z,23.33
2019-02-20T07:20:19.505Z,27.73
2019-02-20T07:23:05.391Z,30.43
2019-02-20T07:25:34.562Z,27.47
2019-02-20T07:28:03.775Z,28.33
2019-02-20T07:30:31.670Z,26.77
2019-02-20T07:32:59.408Z,32.67
2019-02-20T07:35:27.189Z,30.87
2019-02-20T07:37:54.965Z,25.87
2019-02-20T07:40:22.727Z,29.90
2019-02-20T07:42:50.480Z,32.87
2019-02-20T07:45:18.348Z,34.63
2019-02-20T07:47:46.207Z,32.70
2019-02-20T07:50:14.205Z,26.87
2019-02-20T07:52:41.958Z,27.67
2019-02-20T07:55:13.378Z,29.57
2019-02-20T07:57:39.017Z,28.77
2019-02-20T08:00:08.128Z,29.90
2019-02-20T08:02:35.892Z,28.10
2019-02-20T08:05:03.773Z,30.37
2019-02-20T08:07:31.530Z,27.47
2019-02-20T08:09:59.399Z,25.30
2019-02-20T08:12:27.043Z,25.67
2019-02-20T08:14:54.720Z,27.37
2019-02-20T08:17:22.435Z,30.53
2019-02-20T08:19:50.201Z,33.03
2019-02-20T08:22:17.914Z,26.30
2019-02-20T08:24:45.677Z,25.53
2019-02-20T08:27:13.555Z,26.43
2019-02-20T08:29:41.199Z,28.50
2019-02-20T08:32:08.980Z,27.60
2019-02-20T08:34:36.848Z,25.53
2019-02-20T08:37:04.721Z,24.97
2019-02-20T08:39:32.385Z,28.63
2019-02-20T08:42:00.144Z,39.47
2019-02-20T08:44:27.916Z,29.30
2019-02-20T08:46:55.576Z,30.27
2019-02-20T08:49:23.342Z,24.53
2019-02-20T08:51:51.503Z,31.43
2019-02-20T08:54:19.285Z,24.63
2019-02-20T08:56:47.156Z,27.00
2019-02-20T08:59:14.921Z,25.57
2019-02-20T09:01:42.690Z,28.97
2019-02-20T09:04:10.460Z,25.53
2019-02-20T09:06:38.220Z,25.73
2019-02-20T09:09:06.177Z,26.13
2019-02-20T09:11:33.918Z,32.40
2019-02-20T09:14:01.615Z,32.07
2019-02-20T09:16:29.383Z,33.40
2019-02-20T09:18:57.160Z,30.17
2019-02-20T09:21:24.852Z,28.57
2019-02-20T09:23:52.683Z,27.43
2019-02-20T09:26:20.552Z,27.43
2019-02-20T09:28:48.286Z,25.80
2019-02-20T09:31:16.078Z,22.87
2019-02-20T09:33:43.730Z,25.60
2019-02-20T09:36:11.507Z,23.90
2019-02-20T09:38:39.294Z,29.00
2019-02-20T09:41:07.147Z,26.63
2019-02-20T09:43:34.912Z,23.37
2019-02-20T09:46:02.584Z,25.90
2019-02-20T09:48:30.294Z,26.07
2019-02-20T09:50:58.104Z,24.93
2019-02-20T09:53:25.877Z,25.80
2019-02-20T09:55:53.561Z,28.40
2019-02-20T09:58:21.320Z,29.13
2019-02-20T10:00:49.067Z,29.87
2019-02-20T10:03:16.938Z,31.10
2019-02-20T10:05:44.817Z,29.50
2019-02-20T10:08:12.478Z,28.90
2019-02-20T10:10:40.333Z,29.77
2019-02-20T10:13:11.004Z,32.50
2019-02-20T10:15:37.389Z,30.77
2019-02-20T10:18:07.588Z,39.18
2019-02-20T10:20:35.199Z,24.30
2019-02-20T10:23:03.162Z,31.60
2019-02-20T10:25:30.908Z,27.97
2019-02-20T10:27:58.795Z,28.17
2019-02-20T10:30:26.556Z,31.07
2019-02-20T10:32:54.411Z,29.87
2019-02-20T10:35:22.191Z,32.77
2019-02-20T10:37:50.058Z,31.87
2019-02-20T10:40:17.932Z,29.53
2019-02-20T10:42:45.626Z,29.17
2019-02-20T10:45:13.771Z,21.70
2019-02-20T10:47:41.532Z,27.17
2019-02-20T10:50:10.428Z,26.03
2019-02-20T10:52:38.101Z,22.13
2019-02-20T10:55:07.288Z,21.47
2019-02-20T10:57:35.012Z,22.87
2019-02-20T11:00:02.931Z,29.50
2019-02-20T11:02:30.797Z,22.87
2019-02-20T11:04:58.558Z,24.90
2019-02-20T11:07:26.425Z,18.73
2019-02-20T11:09:54.071Z,13.97
2019-02-20T11:12:21.752Z,19.37
2019-02-20T11:14:49.526Z,15.17
2019-02-20T11:17:17.488Z,14.33
2019-02-20T11:19:45.259Z,18.13
2019-02-20T11:22:12.943Z,20.23
2019-02-20T11:24:40.987Z,18.97
2019-02-20T11:27:08.757Z,19.43
2019-02-20T11:29:36.629Z,20.47
2019-02-20T11:32:05.524Z,15.55
2019-02-20T11:34:33.390Z,17.43
2019-02-20T11:37:01.150Z,17.20
2019-02-20T11:39:37.311Z,15.23
2019-02-20T11:41:58.320Z,15.70
2019-02-20T11:44:26.093Z,25.37
2019-02-20T11:46:53.747Z,22.70
2019-02-20T11:49:21.500Z,17.33
2019-02-20T11:51:49.240Z,21.13
2019-02-20T11:54:16.953Z,18.47
2019-02-20T11:56:44.821Z,15.77
2019-02-20T11:59:12.477Z,13.57
2019-02-20T12:01:40.231Z,15.47
2019-02-20T12:04:08.021Z,21.57
2019-02-20T12:06:35.883Z,13.60
2019-02-20T12:09:05.169Z,13.17
2019-02-20T12:11:32.958Z,14.23
2019-02-20T12:14:00.695Z,14.80
2019-02-20T12:16:28.374Z,10.70
2019-02-20T12:18:56.151Z,8.67
2019-02-20T12:21:24.015Z,10.83
2019-02-20T12:23:51.774Z,7.03
2019-02-20T12:26:19.551Z,10.53
2019-02-20T12:28:47.408Z,10.23
2019-02-20T12:31:15.277Z,5.23
2019-02-20T12:33:43.151Z,5.50
2019-02-20T12:36:10.908Z,5.57
2019-02-20T12:38:38.676Z,8.33
2019-02-20T12:41:06.335Z,7.07
2019-02-20T12:43:33.987Z,5.20
2019-02-20T12:46:01.761Z,9.93
2019-02-20T12:48:29.533Z,10.33
2019-02-20T12:50:57.307Z,13.90
2019-02-20T12:53:25.021Z,11.50
2019-02-20T12:55:52.936Z,8.50
2019-02-20T12:58:20.912Z,16.07
2019-02-20T13:00:48.678Z,14.50
2019-02-20T13:03:17.459Z,9.10
2019-02-20T13:05:45.337Z,6.90
2019-02-20T13:08:13.106Z,8.63
2019-02-20T13:10:40.857Z,8.47
2019-02-20T13:13:08.625Z,8.63
2019-02-20T13:15:36.407Z,10.83
2019-02-20T13:18:04.270Z,8.33
2019-02-20T13:20:32.136Z,10.23
2019-02-20T13:22:59.801Z,6.07
2019-02-20T13:25:27.679Z,6.87
2019-02-20T13:27:55.532Z,8.17
2019-02-20T13:30:23.399Z,9.83
2019-02-20T13:32:52.202Z,5.17
2019-02-20T13:35:19.953Z,9.17
2019-02-20T13:37:48.596Z,14.73
2019-02-20T13:40:16.385Z,9.80
2019-02-20T13:42:44.173Z,8.37
2019-02-20T13:45:12.048Z,6.17
2019-02-20T13:47:40.458Z,11.07
2019-02-20T13:50:11.580Z,7.50
2019-02-20T13:52:39.026Z,15.37
2019-02-20T13:55:06.896Z,10.03
2019-02-20T13:57:37.933Z,9.37
2019-02-20T14:00:07.135Z,7.93
2019-02-20T14:02:34.915Z,9.43
2019-02-20T14:05:02.775Z,11.90
2019-02-20T14:07:30.647Z,10.13
2019-02-20T14:09:58.821Z,15.77
2019-02-20T14:12:26.483Z,13.33
2019-02-20T14:14:54.353Z,15.87
2019-02-20T14:17:26.632Z,8.57
2019-02-20T14:19:51.414Z,6.67
2019-02-20T14:22:20.645Z,13.37
2019-02-20T14:24:49.220Z,16.60
2019-02-20T14:27:17.586Z,10.80
2019-02-20T14:29:45.358Z,8.97
2019-02-20T14:32:13.095Z,18.07
2019-02-20T14:34:40.735Z,7.73
2019-02-20T14:37:08.408Z,14.03
2019-02-20T14:39:36.217Z,23.23
2019-02-20T14:42:04.079Z,19.87
2019-02-20T14:44:33.987Z,11.93
2019-02-20T14:47:01.763Z,9.33
2019-02-20T14:49:29.516Z,16.37
2019-02-20T14:51:57.288Z,14.07
2019-02-20T14:54:26.281Z,10.30
2019-02-20T14:56:53.981Z,18.73
2019-02-20T14:59:21.712Z,16.27
2019-02-20T15:01:49.707Z,23.97
2019-02-20T15:04:17.450Z,19.30
2019-02-20T15:06:45.322Z,18.07
2019-02-20T15:09:13.077Z,11.50
2019-02-20T15:11:40.848Z,13.70
2019-02-20T15:14:08.718Z,15.43
2019-02-20T15:16:36.349Z,22.97
2019-02-20T15:19:04.556Z,10.93
2019-02-20T15:21:32.337Z,15.60
2019-02-20T15:23:59.984Z,12.70
2019-02-20T15:26:27.761Z,13.43
2019-02-20T15:28:55.515Z,9.30
2019-02-20T15:31:23.285Z,17.43
2019-02-20T15:33:51.049Z,24.50
2019-02-20T15:36:18.675Z,10.17
2019-02-20T15:38:46.475Z,24.53
2019-02-20T15:41:14.250Z,49.07
2019-02-20T15:43:42.013Z,24.13
2019-02-20T15:46:09.790Z,39.70
2019-02-20T15:48:37.554Z,38.37
2019-02-20T15:51:05.311Z,40.97
2019-02-20T15:53:33.009Z,21.87
2019-02-20T15:56:01.031Z,30.30
2019-02-20T15:58:28.918Z,25.13
2019-02-20T16:00:56.782Z,16.97
2019-02-20T16:03:24.658Z,13.07
2019-02-20T16:05:52.409Z,11.97
2019-02-20T16:08:20.186Z,12.10
2019-02-20T16:10:47.878Z,13.13
2019-02-20T16:13:16.021Z,14.60
2019-02-20T16:15:43.896Z,15.57
2019-02-20T16:18:11.640Z,15.27
2019-02-20T16:20:39.407Z,14.63
2019-02-20T16:23:07.186Z,15.10
2019-02-20T16:25:34.968Z,21.87
2019-02-20T16:28:02.659Z,16.93
2019-02-20T16:30:30.380Z,15.50
2019-02-20T16:32:58.256Z,24.63
2019-02-20T16:35:26.123Z,16.53
2019-02-20T16:37:53.867Z,21.60
2019-02-20T16:40:21.753Z,30.67
2019-02-20T16:42:49.520Z,29.60
2019-02-20T16:45:21.483Z,23.97
2019-02-20T16:47:49.550Z,20.43
2019-02-20T16:50:17.335Z,14.10
2019-02-20T16:52:45.093Z,14.63
2019-02-20T16:55:19.101Z,69.30
2019-02-20T16:57:42.347Z,11.47
2019-02-20T17:00:12.282Z,22.77
2019-02-20T17:02:40.145Z,12.33
2019-02-20T17:05:13.401Z,15.57
2019-02-20T17:07:39.477Z,25.10
2019-02-20T17:10:08.781Z,22.90
2019-02-20T17:12:36.540Z,26.27
2019-02-20T17:15:05.095Z,45.03
2019-02-20T17:17:32.886Z,65.20
2019-02-20T17:20:00.651Z,51.80
2019-02-20T17:22:28.628Z,123.03
2019-02-20T17:24:56.490Z,189.70
2019-02-20T17:27:24.344Z,147.80
2019-02-20T17:29:52.231Z,81.87
2019-02-20T17:32:19.979Z,63.60
2019-02-20T17:34:47.770Z,70.00
2019-02-20T17:37:15.530Z,25.33
2019-02-20T17:39:43.497Z,27.13
2019-02-20T17:42:11.383Z,28.70
2019-02-20T17:44:39.133Z,41.63
2019-02-20T17:47:06.800Z,53.37
2019-02-20T17:49:34.558Z,45.13
2019-02-20T17:52:02.320Z,43.73
2019-02-20T17:54:30.881Z,72.57
2019-02-20T17:56:58.901Z,70.27
2019-02-20T17:59:26.600Z,50.70
2019-02-20T18:01:54.528Z,58.40
2019-02-20T18:04:23.473Z,48.30
2019-02-20T18:06:51.169Z,38.53
2019-02-20T18:09:18.940Z,36.57
2019-02-20T18:11:46.709Z,34.27
2019-02-20T18:14:14.582Z,36.67
2019-02-20T18:16:42.360Z,38.80
2019-02-20T18:19:10.106Z,31.20
2019-02-20T18:21:37.769Z,43.10
2019-02-20T18:24:05.502Z,41.20
2019-02-20T18:26:33.289Z,49.33
2019-02-20T18:29:01.170Z,52.17
2019-02-20T18:31:29.051Z,53.77
2019-02-20T18:33:56.794Z,52.50
2019-02-20T18:36:24.539Z,54.33
2019-02-20T18:38:52.241Z,56.90
2019-02-20T18:41:20.106Z,54.97
2019-02-20T18:43:47.869Z,48.70
2019-02-20T18:46:15.515Z,48.43
2019-02-20T18:48:43.294Z,49.33
2019-02-20T18:51:11.065Z,47.53
2019-02-20T18:53:38.716Z,46.33
2019-02-20T18:56:06.389Z,50.63
2019-02-20T18:58:34.433Z,47.20
2019-02-20T19:01:02.346Z,43.73
2019-02-20T19:03:30.100Z,46.43
2019-02-20T19:05:57.764Z,58.57
2019-02-20T19:08:32.814Z,103.87
2019-02-20T19:11:01.900Z,68.73
2019-02-20T19:13:40.223Z,88.70
2019-02-20T19:16:21.404Z,65.67
2019-02-20T19:18:50.639Z,86.00
2019-02-20T19:21:19.902Z,108.97
2019-02-20T19:23:55.131Z,82.93
2019-02-20T19:26:30.071Z,141.37
2019-02-20T19:29:02.252Z,160.80
2019-02-20T19:31:34.212Z,74.57
2019-02-20T19:34:03.365Z,65.40
2019-02-20T19:36:38.660Z,49.47
2019-02-20T19:39:07.836Z,51.53
2019-02-20T19:41:40.112Z,51.83
2019-02-20T19:44:25.780Z,49.50
2019-02-20T19:47:04.038Z,47.43
2019-02-20T19:49:48.384Z,54.77
2019-02-20T19:52:23.311Z,51.80
2019-02-20T19:54:52.617Z,54.03
2019-02-20T19:57:22.009Z,55.70
2019-02-20T19:59:57.331Z,71.13
2019-02-20T20:02:35.563Z,73.33
2019-02-20T20:05:07.758Z,72.23
2019-02-20T20:07:44.742Z,69.33
2019-02-20T20:10:17.055Z,65.97
2019-02-20T20:12:58.490Z,69.23
2019-02-20T20:15:30.633Z,76.93
2019-02-20T20:18:02.702Z,63.80
2019-02-20T20:20:32.109Z,81.97
2019-02-20T20:23:07.487Z,65.67
2019-02-20T20:25:36.588Z,65.17
2019-02-20T20:28:07.004Z,65.05
2019-02-20T20:30:36.180Z,64.67
2019-02-20T20:33:11.326Z,59.90
2019-02-20T20:35:46.265Z,61.27
2019-02-20T20:38:27.635Z,60.50
2019-02-20T20:40:57.043Z,59.43
2019-02-20T20:43:44.756Z,59.53
2019-02-20T20:46:32.413Z,62.57
2019-02-20T20:49:14.118Z,59.33
2019-02-20T20:51:59.999Z,53.40
2019-02-20T20:54:41.571Z,59.00
2019-02-20T20:57:29.112Z,59.80
2019-02-20T20:59:58.413Z,54.70
2019-02-20T21:02:27.716Z,56.63
2019-02-20T21:04:57.004Z,58.57
2019-02-20T21:07:26.211Z,60.80
2019-02-20T21:09:55.395Z,63.50
2019-02-20T21:12:41.287Z,207.80
2019-02-20T21:15:28.620Z,77.00
2019-02-20T21:18:03.778Z,106.10
2019-02-20T21:20:35.826Z,118.73
2019-02-20T21:23:11.290Z,82.80
2019-02-20T21:25:58.911Z,66.03
2019-02-20T21:28:36.912Z,62.17
2019-02-20T21:31:22.916Z,67.37
2019-02-20T21:33:55.289Z,63.17
2019-02-20T21:36:24.589Z,76.93
2019-02-20T21:38:56.435Z,66.43
2019-02-20T21:41:34.543Z,61.43
2019-02-20T21:44:15.741Z,60.50
2019-02-20T21:47:02.971Z,57.33
2019-02-20T21:49:32.163Z,52.60
2019-02-20T21:52:01.304Z,63.00
2019-02-20T21:54:33.233Z,66.90
2019-02-20T21:57:02.537Z,71.23
2019-02-20T21:59:44.124Z,81.23
2019-02-20T22:02:13.251Z,49.37
2019-02-20T22:04:45.186Z,58.77
2019-02-20T22:07:17.080Z,52.23
2019-02-20T22:10:01.884Z,49.07
2019-02-20T22:12:36.407Z,48.30
2019-02-20T22:15:10.645Z,47.33
2019-02-20T22:17:39.952Z,47.93
2019-02-20T22:20:18.374Z,52.23
2019-02-20T22:22:56.684Z,63.07
2019-02-20T22:25:29.053Z,117.77
2019-02-20T22:28:00.995Z,87.20
2019-02-20T22:30:33.393Z,61.70
2019-02-20T22:33:11.705Z,61.37
2019-02-20T22:35:47.148Z,50.53
2019-02-20T22:38:19.135Z,51.50
2019-02-20T22:40:51.202Z,58.30
2019-02-20T22:43:23.251Z,47.20
2019-02-20T22:45:58.104Z,41.87
2019-02-20T22:48:27.279Z,52.30
2019-02-20T22:50:56.427Z,55.43
2019-02-20T22:53:41.149Z,45.43
2019-02-20T22:56:10.442Z,45.83
2019-02-20T22:58:39.638Z,45.17
2019-02-20T23:01:21.069Z,53.40
2019-02-20T23:03:50.429Z,48.13
2019-02-20T23:06:22.502Z,44.73
2019-02-20T23:08:55.796Z,42.23
2019-02-20T23:11:30.834Z,46.90
2019-02-20T23:14:12.418Z,46.33
2019-02-20T23:16:40.287Z,52.03
2019-02-20T23:19:08.064Z,47.90
2019-02-20T23:21:35.823Z,46.20
2019-02-20T23:24:03.477Z,47.80
2019-02-20T23:26:31.349Z,44.40
2019-02-20T23:28:59.118Z,44.43
2019-02-20T23:31:26.780Z,45.23
2019-02-20T23:33:54.448Z,52.77
2019-02-20T23:36:22.239Z,60.77
2019-02-20T23:38:49.976Z,61.67
2019-02-20T23:41:17.741Z,55.07
2019-02-20T23:43:45.407Z,55.20
2019-02-20T23:46:13.272Z,90.97
2019-02-20T23:48:41.039Z,76.30
2019-02-20T23:51:08.913Z,84.13
2019-02-20T23:53:36.782Z,64.17
2019-02-20T23:56:05.252Z,64.37
2019-02-20T23:58:33.132Z,58.70
